Time;durP1;ratioP1;P1;durP2;ratioP2;P2;SDS_P1;SDS_P2;PMS_P1;PMS_P2;Temp;Humidity;BMP_temperature;BMP_pressure;BME280_temperature;BME280_humidity;BME280_pressure;Samples;Min_cycle;Max_cycle;Signal;HPM_P1;HPM_P2
2023/08/09 00:00:28;;;;;;;3.03;1.87;;;;;;;;;;4987398;28;20198;-78
2023/08/09 00:02:53;;;;;;;2.50;1.90;;;;;;;;;;4988932;28;20203;-78
2023/08/09 00:05:18;;;;;;;2.90;2.10;;;;;;;;;;4982280;28;20180;-78
2023/08/09 00:07:43;;;;;;;2.57;1.70;;;;;;;;;;4986413;28;20187;-78
2023/08/09 00:10:09;;;;;;;3.57;2.13;;;;;;;;;;4987156;28;20172;-78
2023/08/09 00:12:34;;;;;;;3.43;1.80;;;;;;;;;;4985191;28;20229;-78
2023/08/09 00:14:59;;;;;;;3.23;2.03;;;;;;;;;;4988887;28;20275;-78
2023/08/09 00:17:24;;;;;;;2.40;1.80;;;;;;;;;;4994914;28;20183;-78
2023/08/09 00:19:50;;;;;;;2.57;1.70;;;;;;;;;;4992339;28;20299;-78
2023/08/09 00:22:15;;;;;;;4.20;2.13;;;;;;;;;;4988759;28;20270;-78
2023/08/09 00:24:41;;;;;;;2.83;2.17;;;;;;;;;;4986508;28;20220;-78
2023/08/09 00:27:06;;;;;;;2.03;1.83;;;;;;;;;;4988320;28;20184;-78
2023/08/09 00:29:31;;;;;;;3.67;2.07;;;;;;;;;;4983902;28;20262;-78
2023/08/09 00:31:56;;;;;;;2.13;1.90;;;;;;;;;;4982911;28;20180;-78
2023/08/09 00:34:22;;;;;;;3.20;2.20;;;;;;;;;;4991153;28;20323;-78
2023/08/09 00:36:48;;;;;;;3.13;2.10;;;;;;;;;;4991470;28;20269;-78
2023/08/09 00:39:13;;;;;;;2.20;2.00;;;;;;;;;;4991502;28;20176;-78
2023/08/09 00:41:38;;;;;;;2.60;2.17;;;;;;;;;;4988868;28;20176;-78
2023/08/09 00:44:03;;;;;;;3.10;1.80;;;;;;;;;;4988131;28;20188;-78
2023/08/09 00:46:29;;;;;;;4.90;1.80;;;;;;;;;;4987117;28;20181;-78
2023/08/09 00:48:54;;;;;;;2.00;1.80;;;;;;;;;;4990564;28;20279;-78
2023/08/09 00:51:19;;;;;;;2.93;2.00;;;;;;;;;;4984511;28;20176;-78
2023/08/09 00:53:45;;;;;;;2.00;1.80;;;;;;;;;;4983837;28;20203;-78
2023/08/09 00:56:10;;;;;;;1.97;1.60;;;;;;;;;;4986843;28;20183;-78
2023/08/09 00:58:36;;;;;;;2.80;1.90;;;;;;;;;;4987789;28;20315;-78
2023/08/09 01:01:01;;;;;;;3.10;2.00;;;;;;;;;;4985805;28;20240;-78
2023/08/09 01:03:26;;;;;;;2.23;1.80;;;;;;;;;;4987702;28;20263;-78
2023/08/09 01:05:56;;;;;;;2.83;2.07;;;;;;;;;;4989957;28;20259;-78
2023/08/09 01:08:32;;;;;;;2.43;1.70;;;;;;;;;;4988065;28;20177;-78
2023/08/09 01:11:05;;;;;;;2.20;2.00;;;;;;;;;;4992349;28;20180;-78
2023/08/09 01:13:31;;;;;;;2.40;2.20;;;;;;;;;;4997130;28;20245;-78
2023/08/09 01:15:57;;;;;;;3.13;2.13;;;;;;;;;;4989286;28;20178;-78
2023/08/09 01:18:23;;;;;;;3.90;1.80;;;;;;;;;;4988630;28;20174;-78
2023/08/09 01:20:49;;;;;;;3.00;1.80;;;;;;;;;;4992879;28;20189;-78
2023/08/09 01:23:16;;;;;;;2.10;1.83;;;;;;;;;;4981919;28;20231;-78
2023/08/09 01:25:43;;;;;;;1.70;1.57;;;;;;;;;;4989615;28;20212;-78
2023/08/09 01:28:08;;;;;;;2.00;1.83;;;;;;;;;;4994610;28;20250;-78
2023/08/09 01:30:33;;;;;;;1.77;1.67;;;;;;;;;;5012187;28;20174;-78
2023/08/09 01:32:59;;;;;;;2.47;1.83;;;;;;;;;;5015110;28;20256;-78
2023/08/09 01:35:25;;;;;;;2.17;1.90;;;;;;;;;;5009649;28;20238;-78
2023/08/09 01:37:52;;;;;;;3.23;2.10;;;;;;;;;;4996006;28;20178;-78
2023/08/09 01:40:18;;;;;;;2.53;1.80;;;;;;;;;;5006515;28;20191;-78
2023/08/09 01:42:43;;;;;;;2.97;1.80;;;;;;;;;;5010442;28;20211;-78
2023/08/09 01:45:10;;;;;;;5.30;1.87;;;;;;;;;;5007459;28;20209;-78
2023/08/09 01:47:35;;;;;;;3.60;2.10;;;;;;;;;;4996694;28;20182;-78
2023/08/09 01:50:00;;;;;;;2.00;1.80;;;;;;;;;;4991738;28;20176;-78
2023/08/09 01:52:26;;;;;;;2.57;1.63;;;;;;;;;;5008955;28;20188;-78
2023/08/09 01:54:51;;;;;;;1.90;1.80;;;;;;;;;;4986924;28;20259;-78
2023/08/09 01:57:17;;;;;;;3.83;1.87;;;;;;;;;;5005680;28;20198;-78
2023/08/09 01:59:42;;;;;;;2.50;1.87;;;;;;;;;;4994102;28;20265;-78
2023/08/09 02:02:08;;;;;;;1.97;1.60;;;;;;;;;;4984144;28;20270;-78
2023/08/09 02:04:33;;;;;;;2.87;2.10;;;;;;;;;;5001118;28;20251;-78
2023/08/09 02:06:58;;;;;;;2.23;1.90;;;;;;;;;;4992795;28;20201;-78
2023/08/09 02:09:26;;;;;;;3.67;2.10;;;;;;;;;;4988634;28;20191;-78
2023/08/09 02:11:52;;;;;;;3.30;1.90;;;;;;;;;;4992335;28;20183;-78
2023/08/09 02:14:17;;;;;;;2.10;1.90;;;;;;;;;;5009049;28;20198;-78
2023/08/09 02:16:42;;;;;;;2.73;1.90;;;;;;;;;;4986110;28;20178;-78
2023/08/09 02:19:09;;;;;;;3.00;1.80;;;;;;;;;;5009661;28;20255;-78
2023/08/09 02:21:34;;;;;;;3.83;1.87;;;;;;;;;;5007372;28;20187;-78
2023/08/09 02:24:00;;;;;;;1.73;1.60;;;;;;;;;;5013553;28;20219;-78
2023/08/09 02:26:26;;;;;;;2.53;1.80;;;;;;;;;;4991144;28;20184;-76
2023/08/09 02:28:52;;;;;;;4.00;1.97;;;;;;;;;;4990330;28;20240;-78
2023/08/09 02:31:18;;;;;;;2.20;1.90;;;;;;;;;;4990401;28;20183;-78
2023/08/09 02:33:43;;;;;;;3.83;1.87;;;;;;;;;;4987159;28;20183;-78
2023/08/09 02:36:09;;;;;;;5.10;2.27;;;;;;;;;;4991835;28;20187;-78
2023/08/09 02:38:34;;;;;;;3.17;1.60;;;;;;;;;;4984784;28;20183;-78
2023/08/09 02:41:04;;;;;;;2.47;2.00;;;;;;;;;;4987130;28;20187;-78
2023/08/09 02:43:29;;;;;;;2.50;1.93;;;;;;;;;;4984182;28;20291;-78
2023/08/09 02:45:55;;;;;;;4.37;2.00;;;;;;;;;;4981926;28;20267;-78
2023/08/09 02:48:20;;;;;;;2.33;1.77;;;;;;;;;;4982581;28;20176;-78
2023/08/09 02:50:46;;;;;;;3.07;1.80;;;;;;;;;;4987499;28;20176;-78
2023/08/09 02:53:11;;;;;;;2.10;1.90;;;;;;;;;;4996873;28;20215;-78
2023/08/09 02:55:36;;;;;;;2.33;1.87;;;;;;;;;;4977517;28;20196;-78
2023/08/09 02:58:03;;;;;;;2.57;1.80;;;;;;;;;;4989863;28;20265;-78
2023/08/09 03:00:28;;;;;;;4.27;1.90;;;;;;;;;;4986785;28;20195;-78
2023/08/09 03:02:54;;;;;;;2.50;1.90;;;;;;;;;;4989388;28;20207;-78
2023/08/09 03:05:19;;;;;;;2.13;1.83;;;;;;;;;;5002034;28;20180;-78
2023/08/09 03:07:44;;;;;;;4.77;2.10;;;;;;;;;;4992722;28;20209;-78
2023/08/09 03:10:10;;;;;;;5.47;2.37;;;;;;;;;;4990445;28;20241;-78
2023/08/09 03:12:35;;;;;;;3.47;2.13;;;;;;;;;;4987771;28;20203;-78
2023/08/09 03:15:01;;;;;;;3.37;2.33;;;;;;;;;;4993639;28;20185;-78
2023/08/09 03:17:26;;;;;;;2.30;2.10;;;;;;;;;;4997927;28;20228;-78
2023/08/09 03:19:51;;;;;;;3.63;1.80;;;;;;;;;;4990001;28;20172;-78
2023/08/09 03:22:17;;;;;;;2.47;1.80;;;;;;;;;;4985546;28;20204;-78
2023/08/09 03:24:42;;;;;;;2.67;2.07;;;;;;;;;;4988185;28;20235;-78
2023/08/09 03:27:08;;;;;;;3.37;1.90;;;;;;;;;;4999665;28;20176;-78
2023/08/09 03:29:33;;;;;;;4.83;2.30;;;;;;;;;;4990266;28;20315;-78
2023/08/09 03:31:58;;;;;;;1.70;1.60;;;;;;;;;;4990132;28;20173;-78
2023/08/09 03:34:24;;;;;;;2.10;1.63;;;;;;;;;;4987686;28;20271;-78
2023/08/09 03:36:49;;;;;;;3.47;2.20;;;;;;;;;;4995863;28;20164;-78
2023/08/09 03:39:14;;;;;;;2.10;1.90;;;;;;;;;;4990187;28;20266;-78
2023/08/09 03:41:40;;;;;;;1.90;1.70;;;;;;;;;;4990256;28;20171;-78
2023/08/09 03:44:06;;;;;;;2.00;1.80;;;;;;;;;;4985847;28;20200;-78
2023/08/09 03:46:31;;;;;;;4.20;1.90;;;;;;;;;;4995949;28;20254;-78
2023/08/09 03:48:57;;;;;;;2.43;1.53;;;;;;;;;;4991397;28;20182;-78
2023/08/09 03:51:22;;;;;;;2.23;1.50;;;;;;;;;;4991597;28;20168;-78
2023/08/09 03:53:47;;;;;;;3.07;1.90;;;;;;;;;;4985700;28;20191;-78
2023/08/09 03:56:12;;;;;;;3.70;1.73;;;;;;;;;;4995341;28;20190;-78
2023/08/09 03:58:37;;;;;;;4.70;1.80;;;;;;;;;;4988879;28;20196;-78
2023/08/09 04:01:03;;;;;;;3.53;1.93;;;;;;;;;;4993674;28;20204;-78
2023/08/09 04:03:28;;;;;;;1.83;1.70;;;;;;;;;;4990083;28;20215;-78
2023/08/09 04:05:54;;;;;;;1.83;1.70;;;;;;;;;;4987423;28;20215;-78
2023/08/09 04:08:21;;;;;;;2.80;1.77;;;;;;;;;;4994665;28;20179;-78
2023/08/09 04:10:46;;;;;;;1.60;1.50;;;;;;;;;;4990079;28;20171;-78
2023/08/09 04:13:12;;;;;;;1.80;1.70;;;;;;;;;;4990143;28;20281;-78
2023/08/09 04:15:37;;;;;;;4.10;2.10;;;;;;;;;;4988165;28;20187;-78
2023/08/09 04:18:02;;;;;;;2.87;1.80;;;;;;;;;;5001003;28;20186;-78
2023/08/09 04:20:27;;;;;;;4.27;1.83;;;;;;;;;;4989379;28;20194;-78
2023/08/09 04:22:53;;;;;;;4.87;4.03;;;;;;;;;;4989708;28;20191;-78
2023/08/09 04:25:18;;;;;;;2.00;1.70;;;;;;;;;;4984973;28;20236;-78
2023/08/09 04:27:43;;;;;;;2.10;1.90;;;;;;;;;;4990372;28;20209;-77
2023/08/09 04:30:09;;;;;;;2.80;1.70;;;;;;;;;;4996992;28;20183;-78
2023/08/09 04:32:35;;;;;;;2.03;1.83;;;;;;;;;;5006908;28;20199;-78
2023/08/09 04:35:00;;;;;;;2.83;2.20;;;;;;;;;;4987108;28;20222;-78
2023/08/09 04:37:27;;;;;;;2.00;1.90;;;;;;;;;;4996499;28;20285;-78
2023/08/09 04:39:52;;;;;;;2.17;1.80;;;;;;;;;;4990081;28;20182;-78
2023/08/09 04:42:18;;;;;;;4.53;2.23;;;;;;;;;;4992781;28;20207;-78
2023/08/09 04:44:43;;;;;;;4.40;2.00;;;;;;;;;;5000325;28;20175;-78
2023/08/09 04:47:09;;;;;;;4.07;1.73;;;;;;;;;;5007198;28;20175;-77
2023/08/09 04:49:34;;;;;;;2.27;1.97;;;;;;;;;;4999516;28;20187;-78
2023/08/09 04:51:59;;;;;;;2.43;1.87;;;;;;;;;;4992867;28;20207;-78
2023/08/09 04:54:25;;;;;;;2.53;2.33;;;;;;;;;;4993347;28;20203;-78
2023/08/09 04:56:50;;;;;;;3.67;2.00;;;;;;;;;;5006977;28;20185;-78
2023/08/09 04:59:15;;;;;;;5.17;3.10;;;;;;;;;;4995460;28;20262;-78
2023/08/09 05:01:40;;;;;;;3.50;2.63;;;;;;;;;;4997149;28;20262;-78
2023/08/09 05:04:06;;;;;;;2.70;2.30;;;;;;;;;;5005732;28;20257;-78
2023/08/09 05:06:31;;;;;;;2.50;1.90;;;;;;;;;;5006433;28;20179;-78
2023/08/09 05:08:56;;;;;;;2.53;2.33;;;;;;;;;;4991514;28;20269;-78
2023/08/09 05:11:21;;;;;;;2.97;1.60;;;;;;;;;;4991237;28;20274;-78
2023/08/09 05:13:47;;;;;;;4.47;2.10;;;;;;;;;;4989177;28;20307;-78
2023/08/09 05:16:12;;;;;;;2.33;1.80;;;;;;;;;;5015822;28;20176;-78
2023/08/09 05:18:38;;;;;;;2.43;1.90;;;;;;;;;;5014972;28;20193;-77
2023/08/09 05:21:03;;;;;;;1.90;1.80;;;;;;;;;;4992113;28;20338;-78
2023/08/09 05:23:29;;;;;;;2.10;1.90;;;;;;;;;;4986729;28;20199;-78
2023/08/09 05:25:54;;;;;;;1.97;1.80;;;;;;;;;;5004776;28;20182;-78
2023/08/09 05:28:19;;;;;;;3.10;2.20;;;;;;;;;;4983705;28;20265;-78
2023/08/09 05:30:44;;;;;;;6.00;2.40;;;;;;;;;;4988201;28;20172;-78
2023/08/09 05:33:13;;;;;;;4.03;1.73;;;;;;;;;;4987270;28;20290;-78
2023/08/09 05:35:38;;;;;;;1.87;1.63;;;;;;;;;;4987603;28;20177;-77
2023/08/09 05:38:03;;;;;;;8.30;2.40;;;;;;;;;;4989487;28;20253;-78
2023/08/09 05:40:29;;;;;;;4.33;2.10;;;;;;;;;;4990017;28;20210;-78
2023/08/09 05:42:54;;;;;;;2.87;1.83;;;;;;;;;;4988526;28;20287;-79
2023/08/09 05:45:19;;;;;;;2.90;2.10;;;;;;;;;;4991401;28;20180;-79
2023/08/09 05:47:44;;;;;;;3.00;1.90;;;;;;;;;;4999129;28;20180;-78
2023/08/09 05:50:10;;;;;;;5.20;2.27;;;;;;;;;;4981815;28;20180;-78
2023/08/09 05:52:36;;;;;;;2.03;1.90;;;;;;;;;;4997913;28;20281;-78
2023/08/09 05:55:01;;;;;;;2.30;2.10;;;;;;;;;;4990817;28;20266;-78
2023/08/09 05:57:26;;;;;;;2.63;1.90;;;;;;;;;;4985524;28;20196;-78
2023/08/09 05:59:51;;;;;;;5.70;3.07;;;;;;;;;;4988434;28;20189;-78
2023/08/09 06:02:17;;;;;;;6.97;1.90;;;;;;;;;;4998385;28;20254;-78
2023/08/09 06:04:43;;;;;;;9.93;2.57;;;;;;;;;;4991068;28;20189;-78
2023/08/09 06:07:08;;;;;;;3.60;2.00;;;;;;;;;;4985951;28;20255;-78
2023/08/09 06:09:34;;;;;;;2.00;1.90;;;;;;;;;;4989589;28;20180;-78
2023/08/09 06:11:59;;;;;;;3.13;2.00;;;;;;;;;;4987015;28;20172;-78
2023/08/09 06:14:24;;;;;;;6.23;2.37;;;;;;;;;;4993740;28;20188;-78
2023/08/09 06:16:50;;;;;;;2.60;2.07;;;;;;;;;;4992871;28;20179;-78
2023/08/09 06:19:15;;;;;;;10.37;1.90;;;;;;;;;;4991070;28;20172;-78
2023/08/09 06:21:41;;;;;;;9.27;3.00;;;;;;;;;;4981633;28;20174;-78
2023/08/09 06:24:06;;;;;;;9.63;2.53;;;;;;;;;;4987499;28;20365;-78
2023/08/09 06:26:32;;;;;;;2.30;2.10;;;;;;;;;;4988127;28;20235;-78
2023/08/09 06:28:57;;;;;;;4.70;2.37;;;;;;;;;;4988036;28;20255;-78
2023/08/09 06:31:22;;;;;;;6.73;2.37;;;;;;;;;;4990106;28;20191;-78
2023/08/09 06:33:48;;;;;;;5.20;2.50;;;;;;;;;;4991968;28;20187;-78
2023/08/09 06:36:14;;;;;;;2.87;2.37;;;;;;;;;;4990330;28;20227;-78
2023/08/09 06:38:39;;;;;;;2.03;1.80;;;;;;;;;;4981647;28;20197;-78
2023/08/09 06:41:04;;;;;;;8.00;2.90;;;;;;;;;;4989905;28;20272;-78
2023/08/09 06:43:29;;;;;;;5.73;2.50;;;;;;;;;;4994091;28;20235;-78
2023/08/09 06:45:57;;;;;;;5.87;2.10;;;;;;;;;;4986336;28;20178;-78
2023/08/09 06:48:22;;;;;;;5.63;2.20;;;;;;;;;;4987361;28;20197;-78
2023/08/09 06:50:47;;;;;;;7.03;2.07;;;;;;;;;;4988929;28;20169;-77
2023/08/09 06:53:13;;;;;;;2.73;1.90;;;;;;;;;;4984069;28;20191;-78
2023/08/09 06:55:38;;;;;;;5.63;2.40;;;;;;;;;;4986611;28;20185;-78
2023/08/09 06:58:03;;;;;;;3.77;2.17;;;;;;;;;;4992070;28;20189;-78
2023/08/09 07:00:28;;;;;;;6.40;2.30;;;;;;;;;;4990192;28;20188;-78
2023/08/09 07:02:54;;;;;;;3.50;2.47;;;;;;;;;;4984330;28;20200;-78
2023/08/09 07:05:21;;;;;;;4.53;2.57;;;;;;;;;;4990255;28;20181;-78
2023/08/09 07:07:46;;;;;;;5.40;3.00;;;;;;;;;;4985256;28;20247;-78
2023/08/09 07:10:12;;;;;;;5.37;2.17;;;;;;;;;;4990859;28;20231;-78
2023/08/09 07:12:37;;;;;;;3.53;1.93;;;;;;;;;;4989668;28;20181;-78
2023/08/09 07:15:08;;;;;;;4.27;2.30;;;;;;;;;;4987763;28;20198;-78
2023/08/09 07:17:33;;;;;;;2.60;1.60;;;;;;;;;;4990832;28;20190;-76
2023/08/09 07:19:58;;;;;;;4.80;2.27;;;;;;;;;;4985052;28;20209;-78
2023/08/09 07:22:23;;;;;;;2.93;2.13;;;;;;;;;;4984382;28;20275;-78
2023/08/09 07:24:48;;;;;;;5.20;2.40;;;;;;;;;;4988429;28;20260;-78
2023/08/09 07:27:14;;;;;;;2.90;2.33;;;;;;;;;;4987579;28;20180;-78
2023/08/09 07:29:39;;;;;;;4.77;2.07;;;;;;;;;;4992755;28;20265;-79
2023/08/09 07:32:06;;;;;;;2.83;2.30;;;;;;;;;;4989015;28;20262;-78
2023/08/09 07:34:31;;;;;;;2.73;1.90;;;;;;;;;;4996444;28;20184;-78
2023/08/09 07:36:57;;;;;;;4.60;2.33;;;;;;;;;;4984303;28;20183;-78
2023/08/09 07:39:22;;;;;;;2.73;2.20;;;;;;;;;;4990063;28;20168;-78
2023/08/09 07:41:47;;;;;;;3.73;2.40;;;;;;;;;;4989225;28;20185;-78
2023/08/09 07:44:12;;;;;;;2.20;1.97;;;;;;;;;;4991760;28;20210;-78
2023/08/09 07:46:37;;;;;;;2.50;1.90;;;;;;;;;;4986746;28;20221;-78
2023/08/09 07:49:03;;;;;;;2.17;1.90;;;;;;;;;;4991257;28;20189;-78
2023/08/09 07:51:28;;;;;;;3.63;2.20;;;;;;;;;;4987780;28;20179;-78
2023/08/09 07:53:53;;;;;;;4.60;2.53;;;;;;;;;;4985831;28;20184;-79
2023/08/09 07:56:18;;;;;;;3.13;2.07;;;;;;;;;;4997489;28;20190;-78
2023/08/09 08:03:51;;;;;;;6.00;2.60;;;;;;;;;;5027418;28;20280;-72
2023/08/09 08:06:17;;;;;;;3.73;2.50;;;;;;;;;;5016960;28;20216;-72
2023/08/09 08:08:43;;;;;;;3.70;2.30;;;;;;;;;;5031585;28;20175;-72
2023/08/09 08:11:08;;;;;;;7.40;2.53;;;;;;;;;;5010401;28;20178;-72
2023/08/09 08:13:33;;;;;;;2.60;2.40;;;;;;;;;;5006913;28;20257;-72
2023/08/09 08:15:58;;;;;;;7.00;3.60;;;;;;;;;;5009382;28;20232;-72
2023/08/09 08:18:24;;;;;;;3.70;2.37;;;;;;;;;;5007762;28;20197;-73
2023/08/09 08:20:49;;;;;;;5.83;3.80;;;;;;;;;;5027269;28;20184;-72
2023/08/09 08:23:14;;;;;;;4.47;3.23;;;;;;;;;;5026374;28;20271;-72
2023/08/09 08:25:39;;;;;;;4.80;2.47;;;;;;;;;;5011176;28;20219;-72
2023/08/09 08:28:05;;;;;;;2.60;2.40;;;;;;;;;;5016644;28;20264;-72
2023/08/09 08:30:31;;;;;;;3.97;2.57;;;;;;;;;;5007021;28;20181;-72
2023/08/09 08:32:56;;;;;;;4.20;2.60;;;;;;;;;;5012511;28;20179;-73
2023/08/09 08:35:24;;;;;;;3.37;2.77;;;;;;;;;;5035178;28;20173;-72
2023/08/09 08:37:50;;;;;;;2.70;2.50;;;;;;;;;;5018739;28;20270;-72
2023/08/09 08:40:17;;;;;;;4.43;3.00;;;;;;;;;;5026526;28;20251;-72
2023/08/09 08:42:49;;;;;;;8.17;3.30;;;;;;;;;;5016664;28;20234;-72
2023/08/09 08:45:15;;;;;;;4.97;2.23;;;;;;;;;;5015873;28;20181;-72
2023/08/09 08:47:42;;;;;;;4.17;2.30;;;;;;;;;;5015062;28;20181;-72
2023/08/09 08:50:08;;;;;;;6.77;3.03;;;;;;;;;;5035110;28;20250;-72
2023/08/09 08:52:35;;;;;;;4.33;2.60;;;;;;;;;;5040604;28;20223;-72
2023/08/09 08:55:00;;;;;;;6.67;2.93;;;;;;;;;;5031803;28;20214;-72
2023/08/09 08:57:26;;;;;;;5.43;3.30;;;;;;;;;;5017154;28;20209;-72
2023/08/09 08:59:51;;;;;;;3.57;2.67;;;;;;;;;;5030648;28;20210;-72
2023/08/09 09:02:16;;;;;;;7.13;2.60;;;;;;;;;;5031235;28;20219;-72
2023/08/09 09:04:42;;;;;;;2.80;2.20;;;;;;;;;;5016082;28;20176;-73
2023/08/09 09:07:08;;;;;;;13.20;5.00;;;;;;;;;;5032173;28;20187;-72
2023/08/09 09:09:33;;;;;;;5.50;2.83;;;;;;;;;;5012105;28;20323;-73
2023/08/09 09:12:00;;;;;;;4.93;2.77;;;;;;;;;;5031091;28;20170;-72
2023/08/09 09:14:26;;;;;;;3.10;2.47;;;;;;;;;;5012378;28;20195;-73
2023/08/09 09:16:51;;;;;;;4.53;2.97;;;;;;;;;;5040759;28;20186;-72
2023/08/09 09:19:17;;;;;;;2.83;2.50;;;;;;;;;;5024815;28;20194;-73
2023/08/09 09:21:42;;;;;;;3.90;2.57;;;;;;;;;;5016072;28;20182;-72
2023/08/09 09:24:09;;;;;;;3.40;2.67;;;;;;;;;;5007689;28;20210;-74
2023/08/09 09:26:37;;;;;;;4.00;2.73;;;;;;;;;;5021215;28;20181;-71
2023/08/09 09:29:06;;;;;;;4.10;2.67;;;;;;;;;;5021113;28;20187;-72
2023/08/09 09:31:37;;;;;;;3.33;2.60;;;;;;;;;;5027292;28;20181;-71
2023/08/09 09:34:03;;;;;;;5.47;2.60;;;;;;;;;;5011465;28;20263;-71
2023/08/09 09:36:28;;;;;;;3.60;2.37;;;;;;;;;;5011100;28;20189;-71
2023/08/09 09:38:53;;;;;;;3.43;2.63;;;;;;;;;;5011985;28;20182;-71
2023/08/09 09:41:20;;;;;;;3.17;2.70;;;;;;;;;;5011070;28;20178;-71
2023/08/09 09:43:47;;;;;;;4.63;2.70;;;;;;;;;;5031212;28;20204;-71
2023/08/09 09:46:23;;;;;;;2.93;2.30;;;;;;;;;;5010664;28;20177;-71
2023/08/09 09:48:49;;;;;;;3.47;2.53;;;;;;;;;;5015075;28;20227;-71
2023/08/09 09:51:18;;;;;;;3.70;2.83;;;;;;;;;;5012863;28;20181;-71
2023/08/09 09:53:43;;;;;;;3.47;2.70;;;;;;;;;;5011492;28;20182;-71
2023/08/09 09:56:09;;;;;;;4.43;2.40;;;;;;;;;;5034711;28;20263;-71
2023/08/09 09:58:34;;;;;;;4.10;2.43;;;;;;;;;;5030195;28;20180;-71
2023/08/09 10:01:01;;;;;;;4.67;2.80;;;;;;;;;;5031752;28;20216;-72
2023/08/09 10:03:28;;;;;;;2.67;2.47;;;;;;;;;;5027061;28;20236;-71
2023/08/09 10:05:55;;;;;;;5.73;2.90;;;;;;;;;;5038311;28;20178;-71
2023/08/09 10:08:21;;;;;;;4.67;2.53;;;;;;;;;;5024906;28;20182;-71
2023/08/09 10:10:49;;;;;;;14.63;3.83;;;;;;;;;;5026947;28;20238;-72
2023/08/09 10:13:21;;;;;;;6.77;2.80;;;;;;;;;;5032232;28;20250;-71
2023/08/09 10:15:47;;;;;;;4.07;2.20;;;;;;;;;;5029183;28;20236;-72
2023/08/09 10:18:18;;;;;;;4.10;2.80;;;;;;;;;;5004694;28;20271;-72
2023/08/09 10:20:46;;;;;;;7.80;2.87;;;;;;;;;;5029950;28;20209;-72
2023/08/09 10:23:31;;;;;;;28.33;5.07;;;;;;;;;;5026688;28;20225;-72
2023/08/09 10:25:57;;;;;;;14.30;4.30;;;;;;;;;;5027572;28;20189;-71
2023/08/09 10:28:47;;;;;;;6.50;2.77;;;;;;;;;;5013482;28;20189;-71
2023/08/09 10:31:15;;;;;;;3.67;2.60;;;;;;;;;;5004323;28;20189;-71
2023/08/09 10:33:42;;;;;;;4.93;2.70;;;;;;;;;;5030591;28;20183;-71
2023/08/09 10:36:10;;;;;;;3.10;2.50;;;;;;;;;;5028774;28;20211;-71
2023/08/09 10:38:35;;;;;;;5.30;2.77;;;;;;;;;;5008001;28;20194;-72
2023/08/09 10:41:07;;;;;;;3.17;2.73;;;;;;;;;;5019999;28;20249;-71
2023/08/09 10:43:33;;;;;;;3.60;2.70;;;;;;;;;;5014940;28;20201;-71
2023/08/09 10:46:16;;;;;;;2.90;2.60;;;;;;;;;;5011758;28;20183;-72
2023/08/09 10:48:48;;;;;;;5.70;2.63;;;;;;;;;;5027353;28;20187;-72
2023/08/09 10:51:13;;;;;;;5.00;2.60;;;;;;;;;;5025211;28;20180;-72
2023/08/09 10:53:51;;;;;;;6.83;2.73;;;;;;;;;;5017594;28;20191;-71
2023/08/09 10:56:37;;;;;;;2.43;2.00;;;;;;;;;;5029292;28;20182;-71
2023/08/09 10:59:06;;;;;;;2.63;2.43;;;;;;;;;;5024488;28;20181;-71
2023/08/09 11:01:32;;;;;;;3.47;2.47;;;;;;;;;;5028040;28;20285;-71
2023/08/09 11:03:58;;;;;;;3.03;2.50;;;;;;;;;;5007781;28;20317;-71
2023/08/09 11:06:52;;;;;;;3.03;2.20;;;;;;;;;;5013192;28;20200;-71
2023/08/09 11:09:19;;;;;;;2.37;2.17;;;;;;;;;;5016360;28;20193;-71
2023/08/09 11:11:46;;;;;;;9.20;3.23;;;;;;;;;;5038153;28;20175;-71
2023/08/09 11:14:11;;;;;;;5.77;2.40;;;;;;;;;;5009222;28;20305;-71
2023/08/09 11:16:37;;;;;;;11.03;3.57;;;;;;;;;;5005669;28;20280;-71
2023/08/09 11:19:03;;;;;;;2.50;2.30;;;;;;;;;;5027969;28;20273;-72
2023/08/09 11:21:37;;;;;;;2.40;2.20;;;;;;;;;;5010850;28;20186;-71
2023/08/09 11:24:02;;;;;;;8.77;2.70;;;;;;;;;;5029606;28;20210;-72
2023/08/09 11:26:28;;;;;;;3.63;2.23;;;;;;;;;;5010249;28;20222;-71
2023/08/09 11:28:54;;;;;;;3.67;2.30;;;;;;;;;;5004405;28;20190;-71
2023/08/09 11:31:19;;;;;;;4.13;2.80;;;;;;;;;;5013941;28;20181;-71
2023/08/09 11:33:44;;;;;;;7.10;2.80;;;;;;;;;;5028587;28;20206;-71
2023/08/09 11:36:10;;;;;;;4.23;2.70;;;;;;;;;;5032425;28;20194;-71
2023/08/09 11:38:36;;;;;;;4.97;3.13;;;;;;;;;;5024198;28;20183;-71
2023/08/09 11:41:01;;;;;;;6.47;2.90;;;;;;;;;;5027065;28;20177;-71
2023/08/09 11:43:26;;;;;;;2.70;2.50;;;;;;;;;;5009089;28;20209;-71
2023/08/09 11:45:53;;;;;;;3.73;2.93;;;;;;;;;;5024271;28;20261;-72
2023/08/09 11:48:22;;;;;;;2.67;2.30;;;;;;;;;;5031238;28;20175;-72
2023/08/09 11:50:57;;;;;;;2.40;2.20;;;;;;;;;;5035194;28;20176;-71
2023/08/09 11:53:22;;;;;;;3.17;2.37;;;;;;;;;;5013431;28;20179;-71
2023/08/09 11:55:47;;;;;;;2.83;2.50;;;;;;;;;;5032780;28;20182;-71
2023/08/09 11:58:13;;;;;;;6.83;2.23;;;;;;;;;;5011735;28;20233;-71
2023/08/09 12:00:40;;;;;;;3.07;2.57;;;;;;;;;;5031855;28;20191;-71
2023/08/09 12:03:06;;;;;;;2.30;2.10;;;;;;;;;;5008268;28;20231;-71
2023/08/09 12:05:32;;;;;;;6.10;2.50;;;;;;;;;;5010803;28;20244;-72
2023/08/09 12:08:03;;;;;;;7.20;2.90;;;;;;;;;;5020361;28;20182;-71
2023/08/09 12:10:28;;;;;;;3.20;2.57;;;;;;;;;;5039698;28;20217;-71
2023/08/09 12:12:54;;;;;;;2.53;2.33;;;;;;;;;;5034663;28;20178;-71
2023/08/09 12:15:19;;;;;;;11.00;2.63;;;;;;;;;;5020065;28;20184;-71
2023/08/09 12:17:45;;;;;;;3.80;2.10;;;;;;;;;;5019431;28;20180;-71
2023/08/09 12:20:10;;;;;;;3.57;2.50;;;;;;;;;;5015321;28;20278;-71
2023/08/09 12:22:36;;;;;;;8.23;2.77;;;;;;;;;;5034793;28;20289;-71
2023/08/09 12:25:02;;;;;;;2.60;2.40;;;;;;;;;;5018304;28;20178;-71
2023/08/09 12:27:27;;;;;;;4.93;2.40;;;;;;;;;;5018225;28;20188;-71
2023/08/09 12:29:52;;;;;;;3.60;2.53;;;;;;;;;;5015497;28;20271;-71
2023/08/09 12:32:18;;;;;;;4.20;2.90;;;;;;;;;;5024982;28;20183;-71
2023/08/09 12:34:43;;;;;;;4.30;2.40;;;;;;;;;;5033466;28;20319;-71
2023/08/09 12:37:09;;;;;;;8.90;3.17;;;;;;;;;;5039571;28;20186;-71
2023/08/09 12:39:34;;;;;;;3.23;2.50;;;;;;;;;;5018498;28;20176;-71
2023/08/09 12:42:00;;;;;;;3.87;2.40;;;;;;;;;;5016711;28;20175;-71
2023/08/09 12:44:25;;;;;;;2.57;2.37;;;;;;;;;;5014056;28;20226;-71
2023/08/09 12:46:50;;;;;;;4.70;2.90;;;;;;;;;;5033433;28;20250;-71
2023/08/09 12:49:16;;;;;;;3.00;2.60;;;;;;;;;;5015591;28;20177;-72
2023/08/09 12:51:41;;;;;;;3.43;2.70;;;;;;;;;;5016683;28;20167;-72
2023/08/09 12:54:08;;;;;;;6.13;3.07;;;;;;;;;;5015525;28;20190;-71
2023/08/09 12:56:33;;;;;;;5.50;2.60;;;;;;;;;;5029199;28;20203;-72
2023/08/09 12:58:59;;;;;;;3.80;2.50;;;;;;;;;;5013050;28;20182;-71
2023/08/09 13:01:24;;;;;;;5.50;2.73;;;;;;;;;;5033482;28;20196;-71
2023/08/09 13:03:50;;;;;;;5.07;2.60;;;;;;;;;;5011497;28;20218;-72
2023/08/09 13:06:15;;;;;;;6.53;2.80;;;;;;;;;;5014293;28;20172;-71
2023/08/09 13:08:40;;;;;;;3.83;2.30;;;;;;;;;;5016135;28;20178;-72
2023/08/09 13:11:06;;;;;;;4.10;2.50;;;;;;;;;;5024932;28;20230;-72
2023/08/09 13:13:31;;;;;;;3.30;2.30;;;;;;;;;;5013203;28;20188;-72
2023/08/09 13:15:56;;;;;;;2.90;2.70;;;;;;;;;;5014894;28;20184;-72
2023/08/09 13:18:22;;;;;;;3.13;2.47;;;;;;;;;;5035513;28;20184;-72
2023/08/09 13:23:17;;;;;;;3.77;2.50;;;;;;;;;;5015118;28;20288;-71
2023/08/09 13:25:42;;;;;;;7.00;2.63;;;;;;;;;;5013209;28;20190;-71
2023/08/09 13:28:09;;;;;;;2.73;2.20;;;;;;;;;;4995560;28;20194;-71
2023/08/09 13:30:35;;;;;;;3.03;2.23;;;;;;;;;;4989548;28;20189;-71
2023/08/09 13:33:00;;;;;;;4.50;2.93;;;;;;;;;;4992818;28;20223;-71
2023/08/09 13:35:25;;;;;;;5.00;2.80;;;;;;;;;;5016954;28;20191;-71
2023/08/09 13:37:51;;;;;;;3.90;2.47;;;;;;;;;;5016721;28;20181;-71
2023/08/09 13:40:16;;;;;;;5.47;2.50;;;;;;;;;;5011813;28;20185;-71
2023/08/09 13:42:44;;;;;;;3.17;2.27;;;;;;;;;;5012663;28;20212;-72
2023/08/09 13:45:09;;;;;;;5.80;2.77;;;;;;;;;;5009698;28;20173;-72
2023/08/09 13:47:35;;;;;;;2.93;2.40;;;;;;;;;;4993186;28;20215;-71
2023/08/09 13:50:00;;;;;;;3.90;2.27;;;;;;;;;;5012752;28;20214;-72
2023/08/09 13:52:25;;;;;;;4.43;2.50;;;;;;;;;;4997142;28;20245;-72
2023/08/09 13:54:51;;;;;;;3.57;2.50;;;;;;;;;;5009701;28;20179;-72
2023/08/09 13:57:16;;;;;;;4.73;2.77;;;;;;;;;;5012193;28;20287;-72
2023/08/09 13:59:41;;;;;;;4.53;2.57;;;;;;;;;;5007443;28;20187;-72
2023/08/09 14:02:07;;;;;;;3.67;2.73;;;;;;;;;;5016193;28;20173;-72
2023/08/09 14:04:32;;;;;;;4.20;2.30;;;;;;;;;;5010000;28;20290;-72
2023/08/09 14:06:59;;;;;;;5.13;2.80;;;;;;;;;;5011647;28;20210;-72
2023/08/09 14:09:25;;;;;;;4.10;2.57;;;;;;;;;;4993232;28;20179;-71
2023/08/09 14:11:50;;;;;;;5.43;3.10;;;;;;;;;;4996299;28;20192;-72
2023/08/09 14:14:15;;;;;;;2.50;2.30;;;;;;;;;;4993074;28;20187;-72
2023/08/09 14:16:41;;;;;;;5.93;3.60;;;;;;;;;;5009700;28;20181;-72
2023/08/09 14:19:06;;;;;;;3.03;2.63;;;;;;;;;;5013812;28;20203;-71
2023/08/09 14:21:32;;;;;;;2.83;2.63;;;;;;;;;;5001289;28;20326;-71
2023/08/09 14:23:57;;;;;;;2.77;2.30;;;;;;;;;;5013505;28;20212;-72
2023/08/09 14:26:22;;;;;;;2.70;2.50;;;;;;;;;;5013543;28;20176;-72
2023/08/09 14:28:48;;;;;;;2.97;2.20;;;;;;;;;;5012495;28;20245;-72
2023/08/09 14:31:13;;;;;;;3.83;2.27;;;;;;;;;;5030010;28;20166;-71
2023/08/09 14:33:38;;;;;;;3.97;2.30;;;;;;;;;;5023484;28;20167;-72
2023/08/09 14:36:03;;;;;;;3.80;2.50;;;;;;;;;;5018124;28;20185;-72
2023/08/09 14:38:29;;;;;;;5.17;2.47;;;;;;;;;;5029961;28;20211;-71
2023/08/09 14:43:21;;;;;;;2.43;2.20;;;;;;;;;;5028722;28;20276;-71
2023/08/09 14:45:46;;;;;;;4.20;2.13;;;;;;;;;;5013205;28;20245;-71